Time;durP1;ratioP1;P1;durP2;ratioP2;P2;SDS_P1;SDS_P2;PMS_P1;PMS_P2;Temp;Humidity;BMP_temperature;BMP_pressure;BME280_temperature;BME280_humidity;BME280_pressure;Samples;Min_cycle;Max_cycle;Signal;HPM_P1;HPM_P2
2023/03/08 00:01:18;;;;;;;1.57;1.10;;;;;;;2.42;100.00;99030.69;5088762;28;20201;-72
2023/03/08 00:03:45;;;;;;;1.20;1.00;;;;;;;2.40;100.00;99027.16;5089845;28;20610;-72
2023/03/08 00:06:13;;;;;;;0.93;0.90;;;;;;;2.46;100.00;99029.91;5086809;28;20251;-72
2023/03/08 00:08:40;;;;;;;1.03;0.97;;;;;;;2.44;100.00;99030.72;5086388;28;20248;-72
2023/03/08 00:11:09;;;;;;;0.90;0.80;;;;;;;2.39;100.00;99020.13;5087801;28;20190;-72
2023/03/08 00:13:35;;;;;;;1.10;1.00;;;;;;;2.42;100.00;99038.53;5087616;28;20193;-72
2023/03/08 00:16:05;;;;;;;0.83;0.80;;;;;;;2.44;100.00;99025.50;5082671;28;20689;-72
2023/03/08 00:18:32;;;;;;;1.10;0.90;;;;;;;2.38;100.00;99022.69;5088427;28;20248;-72
2023/03/08 00:21:00;;;;;;;1.60;1.00;;;;;;;2.44;100.00;99031.59;5087967;28;20197;-72
2023/03/08 00:23:27;;;;;;;1.00;0.90;;;;;;;2.47;100.00;99031.66;5075753;28;20293;-72
2023/03/08 00:25:53;;;;;;;1.30;1.00;;;;;;;2.44;100.00;99031.59;5085238;28;20793;-72
2023/03/08 00:28:20;;;;;;;0.93;0.90;;;;;;;2.45;100.00;99030.75;5081312;28;20665;-72
2023/03/08 00:30:55;;;;;;;1.23;1.00;;;;;;;2.31;100.00;99021.69;5087842;28;20452;-72
2023/03/08 00:33:22;;;;;;;1.20;1.00;;;;;;;2.34;100.00;99021.75;5085507;28;20666;-72
2023/03/08 00:36:00;;;;;;;1.10;1.00;;;;;;;2.43;100.00;99029.84;5089753;28;20213;-72
2023/03/08 00:38:27;;;;;;;1.00;0.90;;;;;;;2.46;99.44;99024.69;5088752;28;20250;-72
2023/03/08 00:40:53;;;;;;;1.10;1.00;;;;;;;2.42;99.37;99025.47;5085162;28;20255;-72
2023/03/08 00:43:20;;;;;;;1.17;1.07;;;;;;;2.37;100.00;99031.38;5083245;28;20770;-72
2023/03/08 00:45:46;;;;;;;1.33;1.00;;;;;;;2.30;100.00;99025.13;5085782;28;20225;-72
2023/03/08 00:48:18;;;;;;;1.50;1.00;;;;;;;2.40;100.00;99015.78;5086803;28;20252;-72
2023/03/08 00:50:44;;;;;;;1.50;1.03;;;;;;;2.35;100.00;99007.84;5084078;28;20201;-72
2023/03/08 00:53:11;;;;;;;1.20;1.00;;;;;;;2.43;99.22;99003.72;5089720;28;20200;-72
2023/03/08 00:55:37;;;;;;;1.13;1.03;;;;;;;2.45;99.50;99007.22;5092095;28;20661;-72
2023/03/08 00:58:04;;;;;;;1.10;1.00;;;;;;;2.48;99.67;99009.91;5087481;28;20204;-72
2023/03/08 01:00:30;;;;;;;1.50;1.20;;;;;;;2.40;99.82;99019.31;5087911;28;20197;-72
2023/03/08 01:02:57;;;;;;;1.17;1.00;;;;;;;2.35;100.00;99007.84;5090247;28;20197;-72
2023/03/08 01:05:23;;;;;;;1.43;1.10;;;;;;;2.38;100.00;99009.63;5091352;28;20217;-72
2023/03/08 01:07:50;;;;;;;1.63;1.10;;;;;;;2.37;99.95;99018.31;5088407;28;20251;-72
2023/03/08 01:10:16;;;;;;;1.97;1.10;;;;;;;2.33;99.86;99013.88;5090418;28;20199;-72
2023/03/08 01:12:42;;;;;;;1.20;1.10;;;;;;;2.30;100.00;99012.06;5093329;28;20193;-72
2023/03/08 01:15:09;;;;;;;1.47;1.13;;;;;;;2.31;100.00;99007.75;5090693;28;20217;-72
2023/03/08 01:17:36;;;;;;;1.63;1.20;;;;;;;2.31;100.00;99003.41;5081055;28;20647;-72
2023/03/08 01:20:03;;;;;;;1.57;1.20;;;;;;;2.38;100.00;98999.19;5090273;28;20228;-72
2023/03/08 01:22:30;;;;;;;2.00;1.40;;;;;;;2.40;100.00;99007.94;5091449;28;20203;-72
2023/03/08 01:24:57;;;;;;;1.37;1.17;;;;;;;2.42;100.00;98996.72;5090854;28;20452;-72
2023/03/08 01:27:23;;;;;;;1.63;1.40;;;;;;;2.47;100.00;98983.75;5088418;28;20246;-73
2023/03/08 01:29:49;;;;;;;1.40;1.30;;;;;;;2.51;100.00;98978.63;5090299;28;20197;-72
2023/03/08 01:32:16;;;;;;;1.33;1.23;;;;;;;2.61;99.00;98981.44;5092935;28;20710;-72
2023/03/08 01:34:42;;;;;;;1.30;1.20;;;;;;;2.58;99.15;98984.88;5089281;28;20672;-72
2023/03/08 01:37:08;;;;;;;1.70;1.40;;;;;;;2.55;99.44;98978.69;5085118;28;20190;-72
2023/03/08 01:39:35;;;;;;;1.73;1.47;;;;;;;2.51;99.77;98969.91;5088149;28;20194;-72
2023/03/08 01:42:06;;;;;;;2.10;1.60;;;;;;;2.57;98.82;98971.78;5088806;28;20247;-72
2023/03/08 01:44:50;;;;;;;2.60;1.70;;;;;;;2.52;99.00;98966.44;5086835;28;20221;-72
2023/03/08 01:47:19;;;;;;;1.97;1.50;;;;;;;2.59;99.50;98972.69;5088831;28;20271;-72
2023/03/08 01:49:46;;;;;;;2.00;1.43;;;;;;;2.69;98.46;98957.22;5089599;28;20193;-73
2023/03/08 01:52:36;;;;;;;1.53;1.27;;;;;;;2.67;98.46;98964.16;5087513;28;20222;-72
2023/03/08 01:55:06;;;;;;;1.53;1.37;;;;;;;2.67;98.24;98960.66;5085564;28;20256;-72
2023/03/08 01:57:40;;;;;;;1.53;1.30;;;;;;;2.67;98.34;98958.03;5092179;28;20189;-72
2023/03/08 02:00:13;;;;;;;1.63;1.30;;;;;;;2.61;98.68;98958.81;5088659;28;20255;-72
2023/03/08 02:02:43;;;;;;;2.30;1.47;;;;;;;2.67;98.99;98950.22;5089840;28;20228;-72
2023/03/08 02:05:10;;;;;;;1.70;1.40;;;;;;;2.64;99.50;98935.34;5084597;28;20634;-72
2023/03/08 02:07:36;;;;;;;3.17;1.80;;;;;;;2.68;99.53;98936.28;5090299;28;20249;-72
2023/03/08 02:10:03;;;;;;;1.87;1.53;;;;;;;2.71;99.19;98933.75;5084238;28;20236;-72
2023/03/08 02:12:30;;;;;;;3.20;2.00;;;;;;;2.79;98.58;98924.31;5091488;28;20675;-72
2023/03/08 02:14:57;;;;;;;2.93;2.00;;;;;;;2.70;98.59;98925.00;5090749;28;20295;-72
2023/03/08 02:17:24;;;;;;;2.67;2.10;;;;;;;2.66;98.59;98925.81;5087837;28;20231;-72
2023/03/08 02:20:11;;;;;;;3.20;2.23;;;;;;;2.64;98.42;98917.06;5085384;28;20201;-72
2023/03/08 02:22:39;;;;;;;6.50;2.00;;;;;;;2.59;99.11;98916.06;5085753;28;20649;-72
2023/03/08 02:25:25;;;;;;;4.77;2.47;;;;;;;2.63;98.92;98915.28;5088357;28;20282;-72
2023/03/08 02:27:53;;;;;;;3.57;2.37;;;;;;;2.57;98.75;98909.94;5093327;28;20226;-72
2023/03/08 02:30:26;;;;;;;3.80;2.50;;;;;;;2.60;99.07;98907.38;5089981;28;20277;-72
2023/03/08 02:32:52;;;;;;;4.23;2.87;;;;;;;2.61;98.49;98896.09;5088683;28;20197;-72
2023/03/08 02:35:19;;;;;;;5.23;2.57;;;;;;;2.55;98.73;98900.31;5080879;28;20220;-72
2023/03/08 02:37:45;;;;;;;4.53;3.00;;;;;;;2.58;98.37;98909.09;5079515;28;20191;-72
2023/03/08 02:40:13;;;;;;;3.80;2.53;;;;;;;2.60;98.46;98896.94;5088906;28;20194;-72
2023/03/08 02:42:39;;;;;;;4.07;2.57;;;;;;;2.61;97.60;98908.28;5090818;28;20613;-72
2023/03/08 02:45:06;;;;;;;3.80;2.50;;;;;;;2.60;97.66;98902.16;5090850;28;20221;-72
2023/03/08 02:47:33;;;;;;;3.83;2.70;;;;;;;2.62;97.14;98896.97;5087988;28;20215;-72
2023/03/08 02:50:00;;;;;;;3.90;2.80;;;;;;;2.61;97.48;98890.84;5090848;28;20621;-72
2023/03/08 02:52:26;;;;;;;4.33;2.87;;;;;;;2.63;97.35;98894.38;5089456;28;20228;-71
2023/03/08 02:54:52;;;;;;;3.97;2.60;;;;;;;2.68;97.23;98884.03;5091399;28;20217;-72
2023/03/08 02:57:19;;;;;;;4.20;2.97;;;;;;;2.71;96.76;98895.41;5091046;28;20703;-71
2023/03/08 02:59:46;;;;;;;4.13;2.80;;;;;;;2.67;96.82;98892.72;5087834;28;20467;-71
2023/03/08 03:02:12;;;;;;;4.53;3.00;;;;;;;2.67;96.61;98887.47;5088596;28;20197;-72
2023/03/08 03:04:39;;;;;;;4.67;3.30;;;;;;;2.68;96.50;98884.91;5090369;28;20228;-71
2023/03/08 03:07:05;;;;;;;4.10;2.83;;;;;;;2.68;96.05;98884.03;5089013;28;20262;-72
2023/03/08 03:09:33;;;;;;;4.27;2.97;;;;;;;2.58;97.05;98882.06;5085233;28;20193;-71
2023/03/08 03:12:02;;;;;;;4.07;2.67;;;;;;;2.60;97.00;98873.41;5089108;28;20208;-71
2023/03/08 03:14:29;;;;;;;5.43;3.27;;;;;;;2.50;97.90;98888.03;5085095;28;20217;-71
2023/03/08 03:16:55;;;;;;;5.63;3.20;;;;;;;2.45;97.96;98871.38;5088514;28;20802;-71
2023/03/08 03:19:21;;;;;;;5.00;3.03;;;;;;;2.42;99.04;98873.06;5086968;28;20193;-71
2023/03/08 03:21:48;;;;;;;5.40;3.10;;;;;;;2.44;99.16;98874.84;5089638;28;20201;-71
2023/03/08 03:24:14;;;;;;;7.03;3.30;;;;;;;2.55;99.92;98868.94;5090387;28;20267;-72
2023/03/08 03:26:40;;;;;;;4.17;2.93;;;;;;;2.49;100.00;98870.59;5087878;28;20273;-71
2023/03/08 03:29:07;;;;;;;4.63;3.13;;;;;;;2.50;100.00;98874.97;5084457;28;20539;-71
2023/03/08 03:31:33;;;;;;;5.20;3.53;;;;;;;2.56;100.00;98868.97;5087596;28;20206;-72
2023/03/08 03:34:00;;;;;;;6.03;3.37;;;;;;;2.56;100.00;98870.72;5090101;28;20197;-72
2023/03/08 03:36:26;;;;;;;5.00;2.90;;;;;;;2.48;100.00;98871.44;5086525;28;20280;-72
2023/03/08 03:38:54;;;;;;;4.73;3.43;;;;;;;2.48;100.00;98868.81;5088229;28;20198;-72
2023/03/08 03:41:21;;;;;;;6.20;3.80;;;;;;;2.59;100.00;98862.94;5088166;28;20223;-72
2023/03/08 03:43:48;;;;;;;5.67;3.90;;;;;;;2.58;100.00;98866.41;5088952;28;20201;-72
2023/03/08 03:46:17;;;;;;;5.93;3.60;;;;;;;2.48;100.00;98871.44;5085955;28;20197;-72
2023/03/08 03:48:44;;;;;;;5.93;3.60;;;;;;;2.57;100.00;98862.03;5084717;28;20555;-72
2023/03/08 03:51:13;;;;;;;6.07;3.87;;;;;;;2.50;99.83;98861.03;5085652;28;20202;-72
2023/03/08 03:53:40;;;;;;;8.13;4.27;;;;;;;2.41;100.00;98859.09;5089853;28;20722;-72
2023/03/08 03:56:11;;;;;;;6.40;4.17;;;;;;;2.40;100.00;98859.97;5086179;28;20230;-72
2023/03/08 03:58:37;;;;;;;5.97;3.93;;;;;;;2.39;100.00;98859.88;5088116;28;20243;-72
2023/03/08 04:01:08;;;;;;;7.93;4.40;;;;;;;2.44;100.00;98847.84;5085483;28;20330;-72
2023/03/08 04:03:35;;;;;;;7.27;4.53;;;;;;;2.39;100.00;98847.72;5089337;28;20258;-72
2023/03/08 04:06:17;;;;;;;8.27;4.83;;;;;;;2.38;100.00;98843.34;5087890;28;20301;-72
2023/03/08 04:08:43;;;;;;;8.87;4.90;;;;;;;2.41;100.00;98848.66;5083143;28;20210;-72
2023/03/08 04:11:13;;;;;;;9.90;5.53;;;;;;;2.41;100.00;98843.44;5087168;28;20201;-72
2023/03/08 04:13:39;;;;;;;9.33;4.97;;;;;;;2.37;100.00;98840.69;5085051;28;20226;-72
2023/03/08 04:16:11;;;;;;;9.87;5.57;;;;;;;2.38;100.00;98832.88;5089235;28;20244;-71
2023/03/08 04:18:37;;;;;;;8.63;5.43;;;;;;;2.41;100.00;98832.09;5085077;28;20272;-73
2023/03/08 04:21:04;;;;;;;9.03;5.20;;;;;;;2.32;100.00;98831.88;5088652;28;20197;-72
2023/03/08 04:23:31;;;;;;;10.10;5.47;;;;;;;2.33;100.00;98824.06;5086832;28;20224;-72
2023/03/08 04:25:58;;;;;;;10.50;6.33;;;;;;;2.30;100.00;98823.13;5087475;28;20209;-72
2023/03/08 04:28:24;;;;;;;11.73;6.60;;;;;;;2.23;100.00;98826.47;5090013;28;20243;-72
2023/03/08 04:30:50;;;;;;;11.60;6.37;;;;;;;2.22;100.00;98822.09;5091448;28;20250;-72
2023/03/08 04:33:17;;;;;;;13.93;6.97;;;;;;;2.25;100.00;98816.94;5090154;28;20189;-72
2023/03/08 04:35:43;;;;;;;11.53;6.60;;;;;;;2.42;100.00;98816.47;5093445;28;20213;-72
2023/03/08 04:38:10;;;;;;;11.30;6.80;;;;;;;2.38;100.00;98812.00;5091471;28;20197;-72
2023/03/08 04:41:00;;;;;;;12.90;7.07;;;;;;;2.38;100.00;98813.72;5093454;28;20607;-72
2023/03/08 04:43:24;;;;;;;11.93;7.17;;;;;;;2.43;100.00;98810.38;5088204;28;20224;-72
2023/03/08 04:45:50;;;;;;;11.73;6.67;;;;;;;2.44;100.00;98806.91;5090570;28;20229;-72
2023/03/08 04:48:17;;;;;;;10.53;6.70;;;;;;;2.40;100.00;98810.31;5089503;28;20241;-72
2023/03/08 04:50:43;;;;;;;11.03;6.50;;;;;;;2.32;100.00;98806.66;5092944;28;20708;-72
2023/03/08 04:53:09;;;;;;;13.50;6.63;;;;;;;2.45;100.00;98807.81;5091295;28;20245;-72
2023/03/08 04:55:36;;;;;;;11.90;6.43;;;;;;;2.41;100.00;98806.84;5093496;28;20216;-72
2023/03/08 04:58:02;;;;;;;11.27;6.87;;;;;;;2.42;100.00;98810.34;5091683;28;20550;-72
2023/03/08 05:00:29;;;;;;;10.57;6.37;;;;;;;2.51;100.00;98806.19;5090883;28;20662;-72
2023/03/08 05:02:55;;;;;;;11.10;6.70;;;;;;;2.55;100.00;98798.41;5088591;28;20205;-72
2023/03/08 05:05:21;;;;;;;11.20;6.77;;;;;;;2.52;100.00;98791.38;5089769;28;20776;-72
2023/03/08 05:07:48;;;;;;;13.93;7.23;;;;;;;2.50;100.00;98793.97;5091942;28;20274;-72
2023/03/08 05:10:14;;;;;;;12.03;6.80;;;;;;;2.52;100.00;98788.78;5091103;28;20201;-72
2023/03/08 05:12:41;;;;;;;15.63;7.67;;;;;;;2.53;100.00;98780.09;5092370;28;20199;-73
2023/03/08 05:15:08;;;;;;;12.90;7.10;;;;;;;2.54;100.00;98774.00;5092127;28;20209;-72
2023/03/08 05:17:34;;;;;;;11.73;6.80;;;;;;;2.70;100.00;98767.31;5087503;28;20196;-72
2023/03/08 05:20:01;;;;;;;11.20;7.10;;;;;;;2.62;100.00;98772.41;5089548;28;20201;-72
2023/03/08 05:22:27;;;;;;;12.57;6.93;;;;;;;2.55;100.00;98754.88;5090082;28;20197;-72
2023/03/08 05:24:53;;;;;;;15.33;8.67;;;;;;;2.59;100.00;98759.28;5091366;28;20638;-72
2023/03/08 05:27:20;;;;;;;14.13;8.43;;;;;;;2.53;100.00;98758.31;5087216;28;20198;-72
2023/03/08 05:29:46;;;;;;;19.27;8.37;;;;;;;2.61;100.00;98757.59;5091649;28;20197;-72
2023/03/08 05:32:15;;;;;;;14.10;8.17;;;;;;;2.55;100.00;98757.47;5085501;28;20193;-72
2023/03/08 05:34:41;;;;;;;16.03;8.40;;;;;;;2.48;100.00;98747.78;5088261;28;20295;-72
2023/03/08 05:37:08;;;;;;;17.23;9.77;;;;;;;2.47;100.00;98741.66;5089199;28;20260;-72
2023/03/08 05:39:34;;;;;;;21.27;10.87;;;;;;;2.46;100.00;98742.50;5091246;28;20633;-72
2023/03/08 05:42:00;;;;;;;20.97;9.73;;;;;;;2.42;100.00;98739.81;5086811;28;20657;-72
2023/03/08 05:44:27;;;;;;;20.83;9.90;;;;;;;2.41;100.00;98735.44;5089337;28;20245;-72
2023/03/08 05:46:54;;;;;;;19.20;9.77;;;;;;;2.41;100.00;98733.72;5089304;28;20237;-72
2023/03/08 05:49:20;;;;;;;17.63;9.73;;;;;;;2.42;100.00;98731.97;5092141;28;20248;-72
2023/03/08 05:51:46;;;;;;;21.73;10.10;;;;;;;2.43;100.00;98711.09;5092628;28;20197;-72
2023/03/08 05:54:13;;;;;;;18.07;9.93;;;;;;;2.46;100.00;98720.72;5090231;28;20217;-72
2023/03/08 05:56:39;;;;;;;18.07;9.20;;;;;;;2.47;100.00;98722.50;5090533;28;20189;-72
2023/03/08 05:59:05;;;;;;;19.90;10.10;;;;;;;2.47;100.00;98720.75;5089638;28;20222;-73
2023/03/08 06:01:32;;;;;;;21.70;10.03;;;;;;;2.50;100.00;98719.94;5084608;28;20235;-72
2023/03/08 06:03:58;;;;;;;19.07;9.20;;;;;;;2.47;100.00;98725.97;5087698;28;20247;-72
2023/03/08 06:06:26;;;;;;;19.10;9.60;;;;;;;2.54;100.00;98740.03;5091003;28;20190;-73
2023/03/08 06:08:55;;;;;;;18.87;10.10;;;;;;;2.57;100.00;98731.38;5086722;28;20245;-72
2023/03/08 06:11:21;;;;;;;18.97;10.03;;;;;;;2.56;100.00;98716.53;5086523;28;20814;-72
2023/03/08 06:13:47;;;;;;;16.97;10.07;;;;;;;2.51;100.00;98703.41;5090430;28;20222;-72
2023/03/08 06:16:14;;;;;;;19.60;10.17;;;;;;;2.56;100.00;98711.31;5081416;28;20229;-72
2023/03/08 06:18:41;;;;;;;18.47;10.33;;;;;;;2.62;98.93;98722.75;5084587;28;20199;-73
2023/03/08 06:21:12;;;;;;;19.20;10.83;;;;;;;2.60;98.73;98718.38;5087259;28;20194;-73
2023/03/08 06:23:39;;;;;;;18.10;9.97;;;;;;;2.67;97.78;98715.88;5090217;28;20193;-73
2023/03/08 06:26:06;;;;;;;17.77;10.30;;;;;;;2.67;97.07;98721.09;5089767;28;20257;-73
2023/03/08 06:28:33;;;;;;;19.17;9.80;;;;;;;2.70;94.56;98715.94;5085315;28;20209;-73
2023/03/08 06:30:59;;;;;;;19.20;9.17;;;;;;;2.73;93.15;98702.91;5087120;28;20614;-71
2023/03/08 06:33:29;;;;;;;16.87;9.80;;;;;;;2.68;93.82;98695.84;5074115;28;20195;-73
2023/03/08 06:36:07;;;;;;;18.87;9.87;;;;;;;2.63;93.69;98695.78;5081747;28;20251;-74
2023/03/08 06:38:36;;;;;;;16.73;8.77;;;;;;;2.64;93.36;98696.66;5086833;28;20203;-73
2023/03/08 06:41:03;;;;;;;18.73;9.57;;;;;;;2.59;93.31;98688.75;5082959;28;20273;-74
2023/03/08 06:43:30;;;;;;;14.07;8.47;;;;;;;2.69;93.71;98688.03;5089580;28;20200;-74
2023/03/08 06:45:57;;;;;;;16.43;9.27;;;;;;;2.68;93.74;98686.28;5087677;28;20221;-75
2023/03/08 06:48:23;;;;;;;16.17;9.40;;;;;;;2.73;93.98;98683.72;5087517;28;20218;-75
2023/03/08 06:50:50;;;;;;;20.50;9.40;;;;;;;2.75;93.50;98685.53;5090029;28;20343;-75
2023/03/08 06:53:16;;;;;;;16.53;9.40;;;;;;;2.76;93.99;98679.44;5080260;28;20248;-74
2023/03/08 06:55:42;;;;;;;16.63;8.77;;;;;;;2.79;94.41;98676.00;5091148;28;20595;-74
2023/03/08 06:58:09;;;;;;;16.90;8.30;;;;;;;2.85;93.94;98678.72;5085614;28;20243;-74
2023/03/08 07:00:35;;;;;;;16.43;9.13;;;;;;;2.91;94.27;98676.22;5088405;28;20198;-73
2023/03/08 07:03:01;;;;;;;17.03;9.37;;;;;;;2.91;93.79;98670.09;5087417;28;20229;-69
2023/03/08 07:05:28;;;;;;;18.27;9.80;;;;;;;2.86;94.80;98677.88;5081919;28;20249;-69
2023/03/08 07:07:54;;;;;;;15.63;8.60;;;;;;;2.95;94.65;98675.41;5087950;28;20575;-70
2023/03/08 07:10:21;;;;;;;19.67;9.53;;;;;;;2.93;93.62;98657.94;5090814;28;20240;-69
2023/03/08 07:12:50;;;;;;;16.53;8.87;;;;;;;2.95;93.70;98658.84;5084054;28;20204;-70
2023/03/08 07:15:19;;;;;;;15.27;9.00;;;;;;;2.92;92.91;98659.69;5090884;28;20282;-69
2023/03/08 07:17:47;;;;;;;16.70;8.77;;;;;;;2.98;91.59;98659.75;5088846;28;20205;-69
2023/03/08 07:20:15;;;;;;;15.33;7.93;;;;;;;2.98;90.06;98651.91;5088271;28;20236;-70
2023/03/08 07:22:43;;;;;;;15.80;8.00;;;;;;;2.88;90.13;98644.78;5084794;28;20201;-69
2023/03/08 07:25:11;;;;;;;23.00;9.37;;;;;;;2.79;90.98;98636.78;5086478;28;20256;-69
2023/03/08 07:27:37;;;;;;;15.20;7.97;;;;;;;2.86;90.82;98635.19;5089430;28;20201;-69
2023/03/08 07:30:05;;;;;;;23.33;8.37;;;;;;;2.82;91.26;98629.91;5086236;28;20213;-69
2023/03/08 07:32:31;;;;;;;17.03;8.70;;;;;;;2.82;91.81;98626.41;5085229;28;20194;-69
2023/03/08 07:34:58;;;;;;;15.60;8.17;;;;;;;2.78;92.44;98620.22;5086491;28;20213;-69
2023/03/08 07:37:24;;;;;;;17.40;7.83;;;;;;;2.69;92.65;98617.47;5090560;28;20205;-69
2023/03/08 07:39:50;;;;;;;15.20;8.03;;;;;;;2.65;93.38;98614.78;5084248;28;20198;-69
2023/03/08 07:42:17;;;;;;;34.37;10.83;;;;;;;2.60;94.46;98603.38;5090427;28;20193;-69
2023/03/08 07:44:44;;;;;;;19.77;9.20;;;;;;;2.63;94.67;98593.84;5083463;28;20253;-68
2023/03/08 07:47:10;;;;;;;16.77;9.00;;;;;;;2.53;95.14;98594.56;5074730;28;20259;-68
2023/03/08 07:49:37;;;;;;;24.57;9.33;;;;;;;2.50;95.17;98589.31;5077753;28;20280;-68
2023/03/08 07:52:03;;;;;;;18.70;9.17;;;;;;;2.51;95.42;98588.44;5080843;28;20676;-67
2023/03/08 07:54:29;;;;;;;30.87;9.03;;;;;;;2.50;95.30;98581.47;5083528;28;20208;-69
2023/03/08 07:56:56;;;;;;;16.20;8.53;;;;;;;2.50;95.34;98582.34;5088782;28;20205;-69
2023/03/08 07:59:23;;;;;;;24.13;9.80;;;;;;;2.53;95.97;98580.63;5083265;28;20185;-68
2023/03/08 08:01:49;;;;;;;18.80;8.87;;;;;;;2.55;95.64;98569.34;5077744;28;20286;-68
2023/03/08 08:04:16;;;;;;;17.67;8.70;;;;;;;2.51;95.46;98567.53;5078126;28;20225;-68
2023/03/08 08:06:42;;;;;;;20.70;8.67;;;;;;;2.49;95.94;98569.25;5081931;28;20193;-68
2023/03/08 08:09:12;;;;;;;16.93;9.10;;;;;;;2.38;95.77;98544.66;5084404;28;20475;-69
2023/03/08 08:11:40;;;;;;;17.60;8.90;;;;;;;2.41;96.00;98547.38;5089681;28;20198;-69
2023/03/08 08:14:07;;;;;;;15.57;8.10;;;;;;;2.43;96.22;98541.31;5084686;28;20201;-70
2023/03/08 08:16:33;;;;;;;19.53;9.27;;;;;;;2.44;96.61;98531.75;5088806;28;20197;-69
2023/03/08 08:18:59;;;;;;;15.77;8.97;;;;;;;2.48;96.15;98538.75;5087214;28;20190;-68
2023/03/08 08:21:26;;;;;;;23.97;10.23;;;;;;;2.42;96.86;98531.72;5084848;28;20240;-68
2023/03/08 08:23:56;;;;;;;21.73;9.87;;;;;;;2.39;97.09;98536.84;5084939;28;20239;-68
2023/03/08 08:26:23;;;;;;;18.17;9.53;;;;;;;2.31;97.25;98533.25;5089009;28;20215;-69
2023/03/08 08:28:51;;;;;;;18.27;9.67;;;;;;;2.38;97.38;98526.38;5089004;28;20309;-67
2023/03/08 08:31:20;;;;;;;21.30;10.90;;;;;;;2.34;97.58;98528.06;5087210;28;20195;-67
2023/03/08 08:33:47;;;;;;;24.77;11.90;;;;;;;2.41;97.57;98524.75;5087120;28;20209;-68
2023/03/08 08:36:17;;;;;;;19.33;10.43;;;;;;;2.34;96.62;98524.59;5089378;28;20227;-67
2023/03/08 08:38:47;;;;;;;18.20;9.57;;;;;;;2.34;96.45;98525.47;5079536;28;20644;-68
2023/03/08 08:41:16;;;;;;;23.23;10.40;;;;;;;2.32;96.99;98505.41;5079899;28;20574;-68
2023/03/08 08:43:45;;;;;;;21.30;10.17;;;;;;;2.30;97.39;98488.84;5084342;28;20222;-68
2023/03/08 08:46:12;;;;;;;19.33;10.17;;;;;;;2.33;97.55;98488.88;5087581;28;20313;-69
2023/03/08 08:48:39;;;;;;;21.17;11.40;;;;;;;2.44;97.74;98471.66;5068717;28;20237;-68
2023/03/08 08:51:07;;;;;;;25.80;12.43;;;;;;;2.48;97.45;98460.38;5082016;28;20195;-68
2023/03/08 08:53:35;;;;;;;18.80;11.03;;;;;;;2.59;96.86;98453.56;5082832;28;20530;-69
2023/03/08 08:56:16;;;;;;;23.38;11.65;;;;;;;2.61;96.74;98457.09;5084417;28;20452;-69
2023/03/08 08:58:58;;;;;;;19.90;10.23;;;;;;;2.65;96.67;98450.16;5086014;28;21096;-69
2023/03/08 09:01:28;;;;;;;21.67;11.10;;;;;;;2.66;96.54;98447.56;5085871;28;20205;-69
2023/03/08 09:03:54;;;;;;;18.13;10.43;;;;;;;2.67;96.41;98446.72;5085808;28;20190;-69
2023/03/08 09:06:22;;;;;;;23.10;11.40;;;;;;;2.68;96.52;98444.97;5084211;28;20203;-68
2023/03/08 09:08:53;;;;;;;22.40;10.87;;;;;;;2.65;97.03;98437.97;5082044;28;20253;-69
2023/03/08 09:11:20;;;;;;;23.73;11.57;;;;;;;2.68;97.25;98439.75;5080720;28;20263;-69
2023/03/08 09:13:46;;;;;;;23.43;11.03;;;;;;;2.77;97.55;98442.47;5079304;28;20670;-69
2023/03/08 09:16:32;;;;;;;33.53;13.07;;;;;;;2.82;97.07;98438.22;5080313;28;20268;-69
2023/03/08 09:19:02;;;;;;;23.50;11.30;;;;;;;2.85;97.50;98435.63;5090622;28;20197;-69
2023/03/08 09:21:29;;;;;;;21.90;11.17;;;;;;;2.98;97.04;98431.41;5086085;28;20248;-70
2023/03/08 09:24:00;;;;;;;23.00;10.73;;;;;;;3.05;97.06;98438.47;5085251;28;20256;-70
2023/03/08 09:26:29;;;;;;;19.60;10.50;;;;;;;3.08;96.82;98431.53;5089524;28;20196;-69
2023/03/08 09:28:57;;;;;;;22.40;10.90;;;;;;;3.06;96.46;98428.03;5088282;28;20276;-70
2023/03/08 09:31:24;;;;;;;18.07;10.33;;;;;;;3.05;96.68;98444.56;5084317;28;20306;-69
2023/03/08 09:33:51;;;;;;;20.13;10.40;;;;;;;3.10;96.65;98434.16;5089689;28;20602;-68
2023/03/08 09:36:18;;;;;;;20.57;10.80;;;;;;;3.11;96.24;98430.69;5088052;28;20637;-69
2023/03/08 09:38:49;;;;;;;22.07;10.30;;;;;;;3.07;96.62;98421.94;5083497;28;20690;-68
2023/03/08 09:41:28;;;;;;;30.23;12.83;;;;;;;3.15;97.20;98428.13;5089811;28;20675;-68
2023/03/08 09:44:13;;;;;;;24.03;11.40;;;;;;;3.11;97.04;98417.63;5087384;28;20202;-68
2023/03/08 09:46:45;;;;;;;27.63;11.53;;;;;;;3.03;96.64;98421.88;5088337;28;20206;-68
2023/03/08 09:49:17;;;;;;;20.77;11.30;;;;;;;3.06;97.51;98417.56;5085189;28;20218;-68
2023/03/08 09:51:49;;;;;;;22.80;12.10;;;;;;;2.92;97.76;98421.78;5085463;28;20192;-68
2023/03/08 09:54:20;;;;;;;21.67;10.87;;;;;;;2.99;97.68;98414.88;5088819;28;20218;-69
2023/03/08 09:56:52;;;;;;;20.77;11.80;;;;;;;2.93;97.84;98412.19;5088974;28;21463;-69
2023/03/08 09:59:27;;;;;;;20.93;11.20;;;;;;;2.93;97.76;98393.88;5085917;28;20186;-69
2023/03/08 10:02:12;;;;;;;21.60;12.10;;;;;;;2.97;98.42;98395.66;5085565;28;20241;-68
2023/03/08 10:04:52;;;;;;;21.43;11.43;;;;;;;3.04;98.49;98387.03;5084758;28;20364;-69
2023/03/08 10:07:47;;;;;;;20.23;11.40;;;;;;;3.03;98.24;98388.78;5082388;28;20191;-68
2023/03/08 10:10:44;;;;;;;24.97;12.63;;;;;;;3.09;98.50;98383.59;5085905;28;20249;-69
2023/03/08 10:13:22;;;;;;;22.10;12.73;;;;;;;3.14;98.90;98397.59;5086514;28;20202;-69
2023/03/08 10:16:00;;;;;;;24.53;11.43;;;;;;;3.08;98.79;98387.06;5086254;28;20223;-69
2023/03/08 10:18:34;;;;;;;21.10;11.07;;;;;;;3.12;98.41;98380.13;5085098;28;20256;-69
2023/03/08 10:21:01;;;;;;;19.87;11.23;;;;;;;3.08;98.34;98378.34;5085519;28;20200;-70
2023/03/08 10:23:34;;;;;;;26.90;11.27;;;;;;;3.08;97.93;98370.50;5088941;28;20250;-70
2023/03/08 10:26:01;;;;;;;25.30;12.03;;;;;;;3.00;98.33;98356.50;5083984;28;20248;-70
2023/03/08 10:28:28;;;;;;;23.00;12.13;;;;;;;3.07;97.85;98368.75;5089431;28;20226;-70
2023/03/08 10:30:58;;;;;;;22.93;12.73;;;;;;;3.06;98.60;98356.53;5090183;28;20198;-69
2023/03/08 10:33:31;;;;;;;23.67;11.13;;;;;;;3.10;99.47;98359.19;5084531;28;20201;-69
2023/03/08 10:36:16;;;;;;;22.40;12.67;;;;;;;3.14;99.98;98350.53;5083307;28;20223;-70
2023/03/08 10:38:43;;;;;;;34.90;14.03;;;;;;;3.13;99.64;98342.66;5088371;28;20227;-70
2023/03/08 10:41:11;;;;;;;33.50;13.83;;;;;;;3.17;99.80;98340.97;5086200;28;20724;-70
2023/03/08 10:43:43;;;;;;;40.40;14.40;;;;;;;3.15;99.18;98336.59;5086273;28;20303;-68
2023/03/08 10:46:18;;;;;;;22.27;12.53;;;;;;;2.99;98.71;98321.63;5087999;28;20700;-69
2023/03/08 10:48:46;;;;;;;23.33;11.97;;;;;;;2.97;98.98;98312.88;5085825;28;20198;-69
2023/03/08 10:51:21;;;;;;;20.57;11.77;;;;;;;2.93;98.32;98316.34;5087520;28;20197;-70
2023/03/08 10:54:13;;;;;;;24.03;11.97;;;;;;;2.78;98.71;98303.09;5082626;28;20194;-70
2023/03/08 10:56:43;;;;;;;19.30;12.23;;;;;;;2.76;98.45;98300.47;5084731;28;20217;-69
2023/03/08 10:59:18;;;;;;;20.50;11.77;;;;;;;2.67;98.33;98300.38;5083141;28;20212;-69
2023/03/08 11:01:50;;;;;;;20.90;12.60;;;;;;;2.65;98.92;98303.81;5082466;28;20265;-68
2023/03/08 11:04:19;;;;;;;25.27;13.60;;;;;;;2.70;99.29;98292.56;5088346;28;20217;-69
2023/03/08 11:06:45;;;;;;;23.80;14.17;;;;;;;2.78;99.55;98300.47;5089012;28;20203;-69
2023/03/08 11:09:21;;;;;;;24.23;14.13;;;;;;;2.79;100.00;98305.72;5080762;28;20287;-71
2023/03/08 11:11:47;;;;;;;28.90;15.03;;;;;;;2.80;99.74;98304.88;5079735;28;20272;-69
2023/03/08 11:14:15;;;;;;;32.60;14.73;;;;;;;2.80;100.00;98303.97;5084360;28;20648;-69
2023/03/08 11:16:41;;;;;;;25.97;14.83;;;;;;;2.89;100.00;98305.84;5086240;28;20776;-69
2023/03/08 11:19:26;;;;;;;26.37;14.53;;;;;;;3.06;100.00;98310.34;5085006;28;20191;-69
2023/03/08 11:22:22;;;;;;;29.00;15.30;;;;;;;3.07;100.00;98285.97;5083891;28;20200;-69
2023/03/08 11:25:13;;;;;;;25.90;13.87;;;;;;;3.24;100.00;98295.72;5088300;28;20722;-69
2023/03/08 11:28:18;;;;;;;22.37;13.77;;;;;;;3.21;100.00;98298.31;5078764;28;20245;-69
2023/03/08 11:31:13;;;;;;;25.47;13.50;;;;;;;3.19;100.00;98287.81;5077336;28;20260;-69
2023/03/08 11:33:53;;;;;;;26.00;13.47;;;;;;;3.32;100.00;98278.34;5077443;28;20219;-69
2023/03/08 11:36:40;;;;;;;22.43;13.73;;;;;;;3.42;99.41;98275.78;5077136;28;20255;-69
2023/03/08 11:39:27;;;;;;;24.53;14.03;;;;;;;3.44;99.25;98267.97;5080150;28;20204;-69
2023/03/08 11:42:20;;;;;;;23.53;13.23;;;;;;;3.41;99.20;98270.56;5078285;28;20194;-69